createdAt,value
2023-03-29T00:01:36.742Z,8.17
2023-03-29T00:04:07.199Z,6.80
2023-03-29T00:06:34.766Z,8.23
2023-03-29T00:09:05.277Z,10.50
2023-03-29T00:11:32.541Z,9.67
2023-03-29T00:13:59.667Z,8.90
2023-03-29T00:16:26.939Z,7.33
2023-03-29T00:18:54.173Z,6.27
2023-03-29T00:21:21.289Z,7.87
2023-03-29T00:23:48.442Z,6.90
2023-03-29T00:26:15.981Z,10.43
2023-03-29T00:28:43.153Z,9.50
2023-03-29T00:31:11.876Z,8.33
2023-03-29T00:33:39.802Z,8.53
2023-03-29T00:36:07.440Z,7.10
2023-03-29T00:38:34.884Z,8.33
2023-03-29T00:41:02.209Z,6.03
2023-03-29T00:43:29.555Z,7.97
2023-03-29T00:45:56.851Z,9.80
2023-03-29T00:48:27.215Z,9.87
2023-03-29T00:50:56.262Z,7.83
2023-03-29T00:53:26.408Z,9.33
2023-03-29T00:56:04.381Z,7.37
2023-03-29T00:58:35.847Z,9.53
2023-03-29T01:01:11.587Z,8.17
2023-03-29T01:03:46.243Z,7.07
2023-03-29T01:06:14.694Z,9.03
2023-03-29T01:08:43.891Z,8.47
2023-03-29T01:11:18.929Z,11.27
2023-03-29T01:13:52.080Z,8.73
2023-03-29T01:16:20.550Z,9.37
2023-03-29T01:18:48.134Z,9.47
2023-03-29T01:21:19.390Z,9.57
2023-03-29T01:24:06.560Z,13.67
2023-03-29T01:26:52.889Z,11.17
2023-03-29T01:29:32.043Z,10.30
2023-03-29T01:32:02.440Z,9.53
2023-03-29T01:34:36.041Z,9.53
2023-03-29T01:37:36.405Z,7.40
2023-03-29T01:40:05.910Z,13.37
2023-03-29T01:42:46.594Z,10.20
2023-03-29T01:45:19.494Z,9.53
2023-03-29T01:47:50.366Z,9.67
2023-03-29T01:50:36.226Z,6.37
2023-03-29T01:53:25.788Z,8.73
2023-03-29T01:55:54.329Z,10.70
2023-03-29T01:58:26.801Z,9.53
2023-03-29T02:00:55.294Z,9.47
2023-03-29T02:03:24.702Z,12.90
2023-03-29T02:05:52.568Z,8.03
2023-03-29T02:08:20.524Z,9.67
2023-03-29T02:10:48.141Z,13.73
2023-03-29T02:13:15.919Z,11.20
2023-03-29T02:15:45.003Z,12.30
2023-03-29T02:18:13.774Z,13.53
2023-03-29T02:20:42.096Z,9.97
2023-03-29T02:23:09.264Z,10.00
2023-03-29T02:25:37.916Z,11.60
2023-03-29T02:28:06.058Z,10.40
2023-03-29T02:30:55.015Z,13.63
2023-03-29T02:33:25.985Z,10.33
2023-03-29T02:35:57.002Z,12.10
2023-03-29T02:38:25.628Z,11.40
2023-03-29T02:40:53.098Z,15.33
2023-03-29T02:43:21.274Z,10.70
2023-03-29T02:45:49.973Z,13.60
2023-03-29T02:48:18.766Z,14.63
2023-03-29T02:50:47.987Z,11.07
2023-03-29T02:53:20.070Z,13.67
2023-03-29T02:55:47.277Z,12.10
2023-03-29T02:58:15.353Z,15.23
2023-03-29T03:00:44.882Z,13.07
2023-03-29T03:03:13.040Z,12.20
2023-03-29T03:05:40.309Z,11.80
2023-03-29T03:08:07.513Z,11.43
2023-03-29T03:10:35.136Z,11.77
2023-03-29T03:13:02.544Z,12.73
2023-03-29T03:15:31.124Z,13.87
2023-03-29T03:17:58.300Z,11.57
2023-03-29T03:20:26.536Z,13.27
2023-03-29T03:22:53.691Z,16.70
2023-03-29T03:25:21.797Z,14.33
2023-03-29T03:27:49.751Z,13.13
2023-03-29T03:30:17.537Z,14.63
2023-03-29T03:32:45.459Z,14.43
2023-03-29T03:35:12.702Z,17.07
2023-03-29T03:37:40.548Z,13.93
2023-03-29T03:40:11.770Z,15.83
2023-03-29T03:42:39.565Z,16.63
2023-03-29T03:45:08.336Z,16.27
2023-03-29T03:47:37.511Z,12.70
2023-03-29T03:50:05.535Z,11.33
2023-03-29T03:52:32.707Z,16.20
2023-03-29T03:54:59.874Z,16.73
2023-03-29T03:57:27.006Z,15.27
2023-03-29T03:59:54.130Z,13.27
2023-03-29T04:02:22.062Z,14.50
2023-03-29T04:04:49.279Z,19.07
2023-03-29T04:07:17.744Z,17.27
2023-03-29T04:09:45.174Z,20.80
2023-03-29T04:12:12.311Z,14.73
2023-03-29T04:14:39.725Z,13.97
2023-03-29T04:17:06.949Z,16.30
2023-03-29T04:19:34.104Z,16.87
2023-03-29T04:22:01.268Z,17.77
2023-03-29T04:24:28.418Z,16.90
2023-03-29T04:26:55.548Z,15.03
2023-03-29T04:29:22.720Z,17.07
2023-03-29T04:31:49.929Z,16.83
2023-03-29T04:34:17.140Z,16.43
2023-03-29T04:36:44.276Z,20.57
2023-03-29T04:39:11.498Z,17.73
2023-03-29T04:41:39.127Z,18.57
2023-03-29T04:44:06.807Z,15.00
2023-03-29T04:46:34.606Z,17.23
2023-03-29T04:49:01.807Z,18.27
2023-03-29T04:51:29.022Z,19.77
2023-03-29T04:53:56.227Z,19.87
2023-03-29T04:56:23.889Z,19.67
2023-03-29T04:58:51.247Z,20.17
2023-03-29T05:01:18.747Z,19.30
2023-03-29T05:03:45.952Z,20.40
2023-03-29T05:06:13.499Z,19.73
2023-03-29T05:08:41.031Z,21.83
2023-03-29T05:11:08.896Z,22.07
2023-03-29T05:13:36.106Z,25.10
2023-03-29T05:16:03.714Z,24.53
2023-03-29T05:18:31.913Z,20.13
2023-03-29T05:20:59.679Z,20.17
2023-03-29T05:23:27.303Z,23.27
2023-03-29T05:25:54.440Z,21.70
2023-03-29T05:28:21.674Z,20.83
2023-03-29T05:30:59.229Z,23.77
2023-03-29T05:33:26.459Z,23.03
2023-03-29T05:36:00.418Z,22.03
2023-03-29T05:38:27.677Z,20.37
2023-03-29T05:40:54.804Z,20.67
2023-03-29T05:43:22.251Z,25.17
2023-03-29T05:45:49.405Z,21.80
2023-03-29T05:48:17.135Z,24.27
2023-03-29T05:50:48.368Z,19.63
2023-03-29T05:53:16.440Z,19.87
2023-03-29T05:55:43.603Z,23.80
2023-03-29T05:58:12.936Z,25.87
2023-03-29T06:00:40.915Z,23.02
2023-03-29T06:03:19.968Z,23.83
2023-03-29T06:05:49.934Z,19.83
2023-03-29T06:08:17.339Z,21.67
2023-03-29T06:10:45.429Z,22.23
2023-03-29T06:13:12.790Z,22.00
2023-03-29T06:15:40.233Z,23.47
2023-03-29T06:18:07.486Z,24.10
2023-03-29T06:20:34.655Z,22.27
2023-03-29T06:23:02.073Z,20.23
2023-03-29T06:25:29.960Z,24.80
2023-03-29T06:27:57.500Z,22.73
2023-03-29T06:30:24.919Z,23.87
2023-03-29T06:32:52.178Z,23.37
2023-03-29T06:35:20.692Z,21.43
2023-03-29T06:37:50.799Z,21.83
2023-03-29T06:40:21.302Z,21.80
2023-03-29T06:42:49.050Z,21.97
2023-03-29T06:45:16.191Z,25.73
2023-03-29T06:47:43.377Z,23.17
2023-03-29T06:50:11.597Z,19.73
2023-03-29T06:52:38.777Z,19.87
2023-03-29T06:55:07.767Z,22.17
2023-03-29T06:57:34.962Z,21.97
2023-03-29T07:00:02.164Z,21.37
2023-03-29T07:02:29.454Z,22.37
2023-03-29T07:04:56.672Z,24.97
2023-03-29T07:07:27.499Z,20.50
2023-03-29T07:09:55.549Z,20.63
2023-03-29T07:12:23.115Z,18.27
2023-03-29T07:14:50.381Z,19.23
2023-03-29T07:17:18.585Z,20.07
2023-03-29T07:19:45.768Z,19.83
2023-03-29T07:22:14.042Z,21.27
2023-03-29T07:24:41.327Z,18.10
2023-03-29T07:27:08.845Z,18.30
2023-03-29T07:29:36.081Z,21.37
2023-03-29T07:32:04.310Z,21.77
2023-03-29T07:34:32.698Z,20.10
2023-03-29T07:36:59.889Z,20.17
2023-03-29T07:39:27.784Z,17.40
2023-03-29T07:41:58.121Z,23.27
2023-03-29T07:44:27.042Z,19.20
2023-03-29T07:46:54.240Z,16.73
2023-03-29T07:49:22.251Z,17.43
2023-03-29T07:51:49.470Z,18.33
2023-03-29T07:54:16.779Z,18.67
2023-03-29T07:56:44.105Z,16.73
2023-03-29T07:59:11.569Z,17.77
2023-03-29T08:01:40.903Z,15.53
2023-03-29T08:04:08.345Z,17.17
2023-03-29T08:06:35.637Z,16.23
2023-03-29T08:09:02.870Z,16.87
2023-03-29T08:11:30.137Z,17.37
2023-03-29T08:13:59.015Z,17.93
2023-03-29T08:16:26.677Z,16.00
2023-03-29T08:18:53.833Z,19.60
2023-03-29T08:21:21.418Z,16.90
2023-03-29T08:23:48.628Z,16.20
2023-03-29T08:26:16.041Z,19.37
2023-03-29T08:28:43.736Z,19.37
2023-03-29T08:31:11.825Z,23.90
2023-03-29T08:33:39.232Z,26.70
2023-03-29T08:36:06.627Z,18.57
2023-03-29T08:38:33.869Z,18.67
2023-03-29T08:41:01.383Z,20.07
2023-03-29T08:43:49.731Z,18.37
2023-03-29T08:46:17.484Z,21.97
2023-03-29T08:49:10.918Z,23.13
2023-03-29T08:51:46.479Z,17.87
2023-03-29T08:54:20.547Z,19.07
2023-03-29T08:56:48.788Z,20.93
2023-03-29T08:59:19.876Z,21.17
2023-03-29T09:01:49.466Z,17.03
2023-03-29T09:04:28.135Z,19.67
2023-03-29T09:06:55.564Z,20.00
2023-03-29T09:09:24.233Z,19.63
2023-03-29T09:12:10.491Z,19.73
2023-03-29T09:14:42.013Z,16.77
2023-03-29T09:17:12.496Z,17.90
2023-03-29T09:19:52.181Z,16.07
2023-03-29T09:22:28.550Z,18.13
2023-03-29T09:25:38.367Z,16.17
2023-03-29T09:28:19.718Z,15.47
2023-03-29T09:30:59.196Z,16.93
2023-03-29T09:33:27.588Z,15.37
2023-03-29T09:35:56.867Z,15.83
2023-03-29T09:38:24.078Z,19.40
2023-03-29T09:41:05.241Z,15.67
2023-03-29T09:43:34.029Z,17.60
2023-03-29T09:46:03.442Z,16.93
2023-03-29T09:48:32.876Z,16.47
2023-03-29T09:51:01.487Z,15.83
2023-03-29T09:53:28.719Z,16.17
2023-03-29T09:55:56.633Z,16.23
2023-03-29T09:58:25.132Z,18.60
2023-03-29T10:00:53.102Z,16.77
2023-03-29T10:03:21.879Z,15.30
2023-03-29T10:05:50.173Z,16.73
2023-03-29T10:08:27.106Z,16.00
2023-03-29T10:10:54.798Z,18.00
2023-03-29T10:13:33.210Z,15.57
2023-03-29T10:16:03.570Z,16.33
2023-03-29T10:18:32.340Z,15.27
2023-03-29T10:21:00.994Z,15.47
2023-03-29T10:23:36.899Z,17.37
2023-03-29T10:26:05.689Z,14.67
2023-03-29T10:28:33.455Z,16.43
2023-03-29T10:31:03.842Z,18.07
2023-03-29T10:33:33.302Z,14.93
2023-03-29T10:36:01.205Z,16.20
2023-03-29T10:38:29.428Z,13.47
2023-03-29T10:41:03.369Z,16.50
2023-03-29T10:43:37.356Z,15.83
2023-03-29T10:46:20.737Z,16.43
2023-03-29T10:48:52.420Z,13.27
2023-03-29T10:51:20.114Z,13.97
2023-03-29T10:53:47.641Z,14.20
2023-03-29T10:56:39.991Z,16.67
2023-03-29T10:59:22.939Z,12.70
2023-03-29T11:02:20.979Z,15.27
2023-03-29T11:04:52.369Z,14.17
2023-03-29T11:07:38.464Z,14.03
2023-03-29T11:10:10.582Z,14.77
2023-03-29T11:12:52.774Z,14.27
2023-03-29T11:15:38.696Z,13.37
2023-03-29T11:18:24.017Z,14.00
2023-03-29T11:20:54.171Z,14.07
2023-03-29T11:23:41.537Z,15.37
2023-03-29T11:26:24.025Z,13.17
2023-03-29T11:28:56.208Z,13.20
2023-03-29T11:31:43.672Z,14.33
2023-03-29T11:34:20.124Z,14.20
2023-03-29T11:36:50.443Z,15.33
2023-03-29T11:39:36.241Z,14.20
2023-03-29T11:42:15.534Z,15.27
2023-03-29T11:44:42.888Z,16.20
2023-03-29T11:47:10.019Z,13.93
2023-03-29T11:49:39.916Z,12.60
2023-03-29T11:52:10.394Z,13.27
2023-03-29T11:54:41.135Z,13.57
2023-03-29T11:57:11.162Z,12.87
2023-03-29T11:59:40.366Z,13.43
2023-03-29T12:02:13.708Z,11.77
2023-03-29T12:04:43.494Z,12.57
2023-03-29T12:07:10.675Z,11.57
2023-03-29T12:09:40.376Z,9.60
2023-03-29T12:12:10.232Z,11.97
2023-03-29T12:14:40.121Z,10.37
2023-03-29T12:17:09.973Z,9.80
2023-03-29T12:19:42.722Z,10.97
2023-03-29T12:22:11.082Z,10.03
2023-03-29T12:24:41.189Z,11.00
2023-03-29T12:27:16.382Z,10.13
2023-03-29T12:29:55.981Z,10.53
2023-03-29T12:32:35.812Z,9.33
2023-03-29T12:35:03.043Z,9.40
2023-03-29T12:37:31.929Z,9.50
2023-03-29T12:40:18.670Z,9.33
2023-03-29T12:42:52.444Z,10.00
2023-03-29T12:45:21.212Z,10.17
2023-03-29T12:47:49.825Z,8.33
2023-03-29T12:50:24.608Z,9.37
2023-03-29T12:52:51.920Z,8.43
2023-03-29T12:55:25.295Z,8.90
2023-03-29T12:58:06.425Z,9.07
2023-03-29T13:00:33.583Z,8.30
2023-03-29T13:03:21.009Z,8.47
2023-03-29T13:05:59.064Z,8.67
2023-03-29T13:08:34.136Z,7.13
2023-03-29T13:11:01.280Z,6.93
2023-03-29T13:13:36.814Z,6.67
2023-03-29T13:16:14.674Z,6.50
2023-03-29T13:18:50.950Z,5.27
2023-03-29T13:21:29.155Z,5.73
2023-03-29T13:23:59.242Z,5.93
2023-03-29T13:26:44.894Z,6.20
2023-03-29T13:29:23.366Z,5.50
2023-03-29T13:31:59.397Z,5.03
2023-03-29T13:34:26.623Z,5.40
2023-03-29T13:36:53.723Z,6.97
2023-03-29T13:39:24.087Z,5.83
2023-03-29T13:41:54.663Z,4.10
2023-03-29T13:44:43.553Z,4.20
2023-03-29T13:47:10.679Z,4.20
2023-03-29T13:49:38.233Z,3.43
2023-03-29T13:52:17.677Z,3.03
2023-03-29T13:54:57.420Z,2.60
2023-03-29T13:57:27.275Z,2.17
2023-03-29T13:59:57.518Z,2.43
2023-03-29T14:02:27.668Z,2.17
2023-03-29T14:04:55.955Z,2.57
2023-03-29T14:07:26.317Z,2.57
2023-03-29T14:09:54.214Z,3.03
2023-03-29T14:12:21.796Z,3.30
2023-03-29T14:14:58.852Z,3.90
2023-03-29T14:17:27.141Z,5.17
2023-03-29T14:19:57.917Z,4.60
2023-03-29T14:22:25.234Z,4.03
2023-03-29T14:24:53.527Z,4.17
2023-03-29T14:27:21.342Z,3.80
2023-03-29T14:29:49.725Z,4.00
2023-03-29T14:32:18.243Z,4.40
2023-03-29T14:34:48.710Z,4.27
2023-03-29T14:37:19.981Z,3.00
2023-03-29T14:39:47.267Z,3.67
2023-03-29T14:42:21.507Z,5.00
2023-03-29T14:44:49.340Z,5.10
2023-03-29T14:47:28.613Z,3.53
2023-03-29T14:49:58.807Z,4.93
2023-03-29T14:52:26.495Z,4.73
2023-03-29T14:54:56.817Z,4.60
2023-03-29T14:57:25.419Z,4.87
2023-03-29T14:59:56.956Z,4.57
2023-03-29T15:02:25.637Z,3.83
2023-03-29T15:04:59.137Z,3.27
2023-03-29T15:07:28.160Z,4.43
2023-03-29T15:09:55.971Z,3.57
2023-03-29T15:12:23.144Z,4.17
2023-03-29T15:14:53.501Z,5.03
2023-03-29T15:17:43.163Z,4.47
2023-03-29T15:20:21.469Z,4.70
2023-03-29T15:22:56.890Z,4.17
2023-03-29T15:25:27.129Z,5.03
2023-03-29T15:27:57.586Z,5.73
2023-03-29T15:30:33.126Z,3.63
2023-03-29T15:33:09.022Z,5.57
2023-03-29T15:35:36.616Z,4.60
2023-03-29T15:38:05.214Z,4.50
2023-03-29T15:40:33.067Z,4.63
2023-03-29T15:43:00.521Z,3.57
2023-03-29T15:45:27.713Z,4.07
2023-03-29T15:47:54.926Z,5.40
2023-03-29T15:50:22.616Z,4.37
2023-03-29T15:52:50.292Z,5.20
2023-03-29T15:55:18.461Z,4.13
2023-03-29T15:57:46.828Z,5.00
2023-03-29T16:00:14.493Z,4.83
2023-03-29T16:02:42.107Z,3.40
2023-03-29T16:05:13.075Z,4.63
2023-03-29T16:07:40.324Z,3.83
2023-03-29T16:10:07.695Z,4.17
2023-03-29T16:12:37.762Z,3.83
2023-03-29T16:15:18.231Z,3.93
2023-03-29T16:17:45.518Z,3.53
2023-03-29T16:20:19.890Z,3.43
2023-03-29T16:22:48.133Z,2.90
2023-03-29T16:25:19.587Z,2.83
2023-03-29T16:27:47.045Z,2.80
2023-03-29T16:30:14.482Z,2.57
2023-03-29T16:32:42.055Z,3.30
2023-03-29T16:35:32.902Z,2.83
2023-03-29T16:38:00.096Z,3.37
2023-03-29T16:40:27.893Z,2.70
2023-03-29T16:42:55.264Z,2.80
2023-03-29T16:45:22.431Z,2.77
2023-03-29T16:47:49.620Z,3.80
2023-03-29T16:50:18.857Z,3.33
2023-03-29T16:52:48.320Z,3.67
2023-03-29T16:55:19.050Z,2.40
2023-03-29T16:57:50.916Z,4.37
2023-03-29T17:00:19.938Z,3.40
2023-03-29T17:02:49.702Z,4.03
2023-03-29T17:05:17.481Z,2.40
2023-03-29T17:07:44.797Z,3.93
2023-03-29T17:10:12.522Z,4.67
2023-03-29T17:12:39.982Z,4.67
2023-03-29T17:15:07.944Z,3.63
2023-03-29T17:17:35.284Z,3.07
2023-03-29T17:20:02.475Z,4.07
2023-03-29T17:22:29.596Z,2.23
2023-03-29T17:24:56.779Z,2.43
2023-03-29T17:27:23.900Z,2.50
2023-03-29T17:29:51.177Z,3.27
2023-03-29T17:32:18.321Z,3.13
2023-03-29T17:34:46.258Z,3.33
2023-03-29T17:37:13.459Z,4.40
2023-03-29T17:39:41.969Z,3.07
2023-03-29T17:42:09.137Z,3.33
2023-03-29T17:44:36.380Z,3.83
2023-03-29T17:47:03.612Z,3.57
2023-03-29T17:49:31.745Z,4.00
2023-03-29T17:51:58.872Z,4.50
2023-03-29T17:54:26.055Z,4.13
2023-03-29T17:56:53.219Z,3.57
2023-03-29T17:59:20.407Z,2.60
2023-03-29T18:01:47.647Z,6.10
2023-03-29T18:04:14.842Z,3.40
2023-03-29T18:06:42.600Z,2.67
2023-03-29T18:09:10.097Z,3.80
2023-03-29T18:11:38.461Z,4.23
2023-03-29T18:14:05.637Z,3.90
2023-03-29T18:16:32.955Z,3.80
2023-03-29T18:19:00.188Z,2.93
2023-03-29T18:21:27.504Z,4.13
2023-03-29T18:23:56.986Z,5.27
2023-03-29T18:26:25.060Z,3.07
2023-03-29T18:28:52.388Z,4.67
2023-03-29T18:31:19.945Z,3.60
2023-03-29T18:33:47.939Z,4.10
2023-03-29T18:36:15.186Z,3.90
2023-03-29T18:38:43.596Z,3.27
2023-03-29T18:41:12.414Z,4.70
2023-03-29T18:43:40.494Z,4.57
2023-03-29T18:46:09.132Z,4.70
2023-03-29T18:48:39.023Z,4.10
2023-03-29T18:51:10.442Z,4.73
2023-03-29T18:53:38.756Z,5.00
2023-03-29T18:56:06.592Z,5.33
2023-03-29T18:58:33.828Z,4.90
2023-03-29T19:01:03.504Z,4.87
2023-03-29T19:03:31.565Z,4.07
2023-03-29T19:05:58.792Z,6.60
2023-03-29T19:08:26.316Z,4.57
2023-03-29T19:10:54.019Z,3.60
2023-03-29T19:13:21.197Z,3.47
2023-03-29T19:15:48.503Z,4.27
2023-03-29T19:18:16.002Z,3.40
2023-03-29T19:20:43.138Z,4.73
2023-03-29T19:23:10.565Z,3.63
2023-03-29T19:25:37.986Z,3.97
2023-03-29T19:28:05.205Z,4.07
2023-03-29T19:30:32.661Z,3.87
2023-03-29T19:32:59.956Z,4.00
2023-03-29T19:35:27.182Z,3.60
2023-03-29T19:37:54.383Z,5.07
2023-03-29T19:40:21.797Z,3.93
2023-03-29T19:42:48.950Z,4.03
2023-03-29T19:45:16.088Z,4.77
2023-03-29T19:47:47.584Z,3.90
2023-03-29T19:50:15.074Z,5.20
2023-03-29T19:52:42.981Z,3.47
2023-03-29T19:55:10.598Z,4.07
2023-03-29T19:57:37.857Z,4.30
2023-03-29T20:00:07.948Z,4.40
2023-03-29T20:02:36.260Z,4.63
2023-03-29T20:05:04.277Z,4.07
2023-03-29T20:07:31.471Z,3.87
2023-03-29T20:09:58.727Z,4.20
2023-03-29T20:12:26.145Z,3.90
2023-03-29T20:14:53.295Z,4.13
2023-03-29T20:17:21.055Z,4.07
2023-03-29T20:19:48.193Z,4.73
2023-03-29T20:22:15.472Z,4.40
2023-03-29T20:24:42.978Z,3.60
2023-03-29T20:27:10.964Z,3.73
2023-03-29T20:29:38.095Z,3.50
2023-03-29T20:32:05.472Z,4.17
2023-03-29T20:34:32.675Z,4.17
2023-03-29T20:37:00.896Z,3.87
2023-03-29T20:39:29.591Z,5.43
2023-03-29T20:41:56.780Z,3.97
2023-03-29T20:44:26.261Z,4.43
2023-03-29T20:47:03.768Z,5.77
2023-03-29T20:49:36.910Z,3.70
2023-03-29T20:52:12.308Z,2.73
2023-03-29T20:54:39.559Z,5.23
2023-03-29T20:57:07.746Z,3.80
2023-03-29T20:59:35.621Z,4.40
2023-03-29T21:02:02.895Z,3.83
2023-03-29T21:04:30.743Z,3.93
2023-03-29T21:06:59.889Z,3.63
2023-03-29T21:09:31.040Z,4.10
2023-03-29T21:11:58.170Z,5.37
2023-03-29T21:14:26.654Z,4.90
2023-03-29T21:16:53.843Z,4.40
2023-03-29T21:19:21.201Z,4.47
2023-03-29T21:21:52.147Z,4.90
2023-03-29T21:24:19.816Z,3.77
2023-03-29T21:26:46.950Z,4.13
2023-03-29T21:29:14.251Z,4.83
2023-03-29T21:31:41.818Z,6.53
2023-03-29T21:34:09.032Z,4.93
2023-03-29T21:36:36.238Z,5.03
2023-03-29T21:39:03.491Z,4.97
2023-03-29T21:41:30.630Z,5.17
2023-03-29T21:43:57.776Z,6.00
2023-03-29T21:46:25.855Z,6.13
2023-03-29T21:48:53.126Z,5.33
2023-03-29T21:51:20.259Z,5.30
2023-03-29T21:53:47.455Z,5.67
2023-03-29T21:56:15.770Z,5.37
2023-03-29T21:58:43.041Z,5.70
2023-03-29T22:01:10.630Z,6.53
2023-03-29T22:03:38.477Z,6.07
2023-03-29T22:06:08.591Z,6.23
2023-03-29T22:08:38.724Z,6.63
2023-03-29T22:11:08.207Z,6.10
2023-03-29T22:13:35.554Z,6.17
2023-03-29T22:16:03.909Z,6.27
2023-03-29T22:18:42.578Z,6.27
2023-03-29T22:21:14.416Z,6.37
2023-03-29T22:23:42.266Z,6.87
2023-03-29T22:26:11.047Z,6.13
2023-03-29T22:28:38.375Z,5.83
2023-03-29T22:31:06.497Z,5.90
2023-03-29T22:33:34.450Z,6.73
2023-03-29T22:36:02.169Z,6.50
2023-03-29T22:38:29.928Z,5.90
2023-03-29T22:40:57.043Z,6.40
2023-03-29T22:43:24.419Z,7.23
2023-03-29T22:45:51.578Z,6.60
2023-03-29T22:48:18.753Z,7.93
2023-03-29T22:50:48.798Z,5.60
2023-03-29T22:53:16.065Z,6.37
2023-03-29T22:55:45.850Z,5.30
2023-03-29T22:58:13.191Z,6.97
2023-03-29T23:00:40.617Z,6.43
2023-03-29T23:03:07.879Z,7.20
2023-03-29T23:05:35.498Z,5.53
2023-03-29T23:08:02.802Z,5.70
2023-03-29T23:10:30.560Z,6.37
2023-03-29T23:13:10.827Z,7.23
2023-03-29T23:15:41.300Z,5.97
2023-03-29T23:18:08.660Z,7.03
2023-03-29T23:20:35.917Z,5.97
2023-03-29T23:23:04.001Z,6.53
2023-03-29T23:25:31.401Z,5.93
2023-03-29T23:27:58.688Z,6.43
2023-03-29T23:30:26.839Z,6.67
2023-03-29T23:32:54.235Z,5.10
2023-03-29T23:35:21.521Z,5.50
2023-03-29T23:37:48.795Z,5.93
2023-03-29T23:40:16.712Z,5.97
2023-03-29T23:42:44.812Z,6.30
2023-03-29T23:45:13.280Z,4.87
2023-03-29T23:47:42.325Z,5.70
2023-03-29T23:50:11.920Z,6.03
2023-03-29T23:52:40.568Z,4.50
2023-03-29T23:55:08.715Z,4.57
2023-03-29T23:57:37.027Z,5.23
